Time;durP1;ratioP1;P1;durP2;ratioP2;P2;SDS_P1;SDS_P2;PMS_P1;PMS_P2;Temp;Humidity;BMP_temperature;BMP_pressure;BME280_temperature;BME280_humidity;BME280_pressure;Samples;Min_cycle;Max_cycle;Signal;HPM_P1;HPM_P2
2022/10/22 00:03:35;;;;;;;;;;;;;;;14.58;100.00;98906.47;10181654;23;19929;-80
2022/10/22 00:07:40;;;;;;;;;;;;;;;14.59;100.00;98904.72;10156210;23;19979;-79
2022/10/22 00:12:08;;;;;;;;;;;;;;;14.55;100.00;98898.72;10179875;23;19952;-80
2022/10/22 00:16:39;;;;;;;;;;;;;;;14.51;100.00;98900.53;10139525;23;19996;-80
2022/10/22 00:20:58;;;;;;;;;;;;;;;14.52;100.00;98896.16;10179829;23;19986;-79
2022/10/22 00:25:24;;;;;;;;;;;;;;;14.51;100.00;98911.00;10181623;23;20212;-80
2022/10/22 00:30:00;;;;;;;;;;;;;;;14.51;100.00;98910.13;10185082;23;20631;-80
2022/10/22 00:34:21;;;;;;;;;;;;;;;14.49;100.00;98910.19;10186982;23;19928;-80
2022/10/22 00:38:43;;;;;;;;;;;;;;;14.50;100.00;98919.72;10161729;23;19982;-80
2022/10/22 00:43:19;;;;;;;;;;;;;;;14.50;100.00;98911.03;10158690;23;19924;-78
2022/10/22 00:47:24;;;;;;;;;;;;;;;14.50;100.00;98893.59;10131345;23;19924;-80
2022/10/22 00:51:28;;;;;;;;;;;;;;;14.47;100.00;98918.97;10155764;23;19987;-80
2022/10/22 00:55:29;;;;;;;;;;;;;;;14.48;100.00;98920.69;10155917;23;19970;-79
2022/10/22 00:59:33;;;;;;;;;;;;;;;14.46;100.00;98915.50;10155254;23;19925;-80
2022/10/22 01:03:39;;;;;;;;;;;;;;;14.44;100.00;98891.16;10181417;23;19986;-80
2022/10/22 01:07:44;;;;;;;;;;;;;;;14.45;100.00;98898.09;10130998;23;19920;-80
2022/10/22 01:12:24;;;;;;;;;;;;;;;14.44;100.00;98919.06;10169735;23;19924;-80
2022/10/22 01:17:00;;;;;;;;;;;;;;;14.45;100.00;98926.84;10158563;23;20003;-80
2022/10/22 01:21:43;;;;;;;;;;;;;;;14.45;100.00;98915.53;10130429;23;19935;-79
2022/10/22 01:26:11;;;;;;;;;;;;;;;14.40;100.00;98907.81;10113996;23;20296;-80
2022/10/22 01:30:39;;;;;;;;;;;;;;;14.39;100.00;98933.97;10175687;23;19925;-80
2022/10/22 01:34:55;;;;;;;;;;;;;;;14.33;100.00;98924.53;10173220;23;20327;-79
2022/10/22 01:39:30;;;;;;;;;;;;;;;14.33;100.00;98927.13;10183945;23;19925;-80
2022/10/22 01:43:38;;;;;;;;;;;;;;;14.35;100.00;98933.16;10175551;23;19925;-80
2022/10/22 01:48:26;;;;;;;;;;;;;;;14.32;100.00;98940.25;10155164;23;19917;-80
2022/10/22 01:52:55;;;;;;;;;;;;;;;14.31;100.00;98922.84;10147165;23;19928;-80
2022/10/22 01:57:11;;;;;;;;;;;;;;;14.29;100.00;98937.72;10156735;23;19951;-80
2022/10/22 02:01:33;;;;;;;;;;;;;;;14.24;100.00;98937.84;10186291;23;19924;-80
2022/10/22 02:05:45;;;;;;;;;;;;;;;14.17;100.00;98941.50;10138090;23;20197;-80
2022/10/22 02:10:01;;;;;;;;;;;;;;;14.12;100.00;98940.75;10192663;23;19925;-80
2022/10/22 02:14:19;;;;;;;;;;;;;;;14.07;100.00;98940.03;10162673;23;19924;-80
2022/10/22 02:18:35;;;;;;;;;;;;;;;14.00;100.00;98938.47;10191392;23;20252;-80
2022/10/22 02:23:01;;;;;;;;;;;;;;;13.90;100.00;98943.06;10149916;23;19920;-80
2022/10/22 02:27:43;;;;;;;;;;;;;;;13.83;100.00;98950.22;10165785;23;19925;-81
2022/10/22 02:32:00;;;;;;;;;;;;;;;13.77;100.00;98952.09;10191824;23;19982;-80
2022/10/22 02:36:19;;;;;;;;;;;;;;;13.71;100.00;98960.94;10191846;23;19931;-80
2022/10/22 02:40:34;;;;;;;;;;;;;;;13.65;100.00;98963.69;10194309;23;20060;-80
2022/10/22 02:45:28;;;;;;;;;;;;;;;13.61;100.00;98968.09;10192860;23;20021;-80
2022/10/22 02:49:33;;;;;;;;;;;;;;;13.57;100.00;98971.69;10193849;23;19925;-81
2022/10/22 02:53:43;;;;;;;;;;;;;;;13.56;100.00;98977.81;10201746;23;19920;-81
2022/10/22 02:57:51;;;;;;;;;;;;;;;13.56;100.00;98984.78;10165301;23;19935;-80
2022/10/22 03:02:12;;;;;;;;;;;;;;;13.52;100.00;98993.56;10177499;23;19925;-80
2022/10/22 03:06:15;;;;;;;;;;;;;;;13.47;100.00;98992.81;10149658;23;19924;-80
2022/10/22 03:10:17;;;;;;;;;;;;;;;13.44;100.00;99000.69;10175738;23;20649;-80
2022/10/22 03:14:19;;;;;;;;;;;;;;;13.37;100.00;99004.34;10198135;23;20576;-80
2022/10/22 03:18:21;;;;;;;;;;;;;;;13.24;100.00;98998.50;10149728;23;19956;-81
2022/10/22 03:22:26;;;;;;;;;;;;;;;13.14;100.00;99000.44;10172040;23;20419;-82
2022/10/22 03:26:28;;;;;;;;;;;;;;;13.02;100.00;99005.91;10173065;23;20387;-82
2022/10/22 03:30:30;;;;;;;;;;;;;;;12.96;100.00;99019.06;10171908;23;19924;-81
2022/10/22 03:34:32;;;;;;;;;;;;;;;12.91;100.00;99016.53;10146089;23;19924;-82
2022/10/22 03:38:34;;;;;;;;;;;;;;;12.86;100.00;99009.69;10140436;23;19921;-80
2022/10/22 03:42:36;;;;;;;;;;;;;;;12.81;100.00;99020.22;10137118;23;19982;-80
2022/10/22 03:46:39;;;;;;;;;;;;;;;12.73;100.00;99034.25;10186480;23;19920;-80
2022/10/22 03:50:42;;;;;;;;;;;;;;;12.65;100.00;99024.00;10143264;23;19933;-81
2022/10/22 03:54:45;;;;;;;;;;;;;;;12.61;100.00;99031.03;10174886;23;19927;-81
2022/10/22 03:58:49;;;;;;;;;;;;;;;12.59;100.00;99035.41;10142866;23;19952;-81
2022/10/22 04:02:52;;;;;;;;;;;;;;;12.57;100.00;99031.13;10166527;23;19948;-82
2022/10/22 04:07:18;;;;;;;;;;;;;;;12.55;100.00;99051.94;10182496;23;20795;-82
2022/10/22 04:11:27;;;;;;;;;;;;;;;12.51;100.00;99058.09;10175391;23;19920;-82
2022/10/22 04:15:32;;;;;;;;;;;;;;;12.45;100.00;99054.75;10170889;23;19935;-82
2022/10/22 04:19:36;;;;;;;;;;;;;;;12.38;100.00;99053.97;10146377;23;19974;-82
2022/10/22 04:23:43;;;;;;;;;;;;;;;12.31;100.00;99055.84;10146308;23;19920;-82
2022/10/22 04:27:45;;;;;;;;;;;;;;;12.18;100.00;99059.53;10165990;23;20007;-82
2022/10/22 04:31:48;;;;;;;;;;;;;;;12.10;100.00;99053.59;10166382;23;20043;-81
2022/10/22 04:35:50;;;;;;;;;;;;;;;11.99;100.00;99052.91;10139605;23;19924;-83
2022/10/22 04:39:51;;;;;;;;;;;;;;;11.93;100.00;99051.25;10165874;23;19924;-82
2022/10/22 04:43:55;;;;;;;;;;;;;;;11.88;100.00;99050.47;10191142;23;19940;-81
2022/10/22 04:47:56;;;;;;;;;;;;;;;11.90;100.00;99061.72;10190145;23;20332;-82
2022/10/22 04:51:57;;;;;;;;;;;;;;;11.89;100.00;99060.00;10187420;23;19935;-84
2022/10/22 04:56:10;;;;;;;;;;;;;;;11.88;100.00;99065.22;10138899;23;19931;-82
2022/10/22 05:00:11;;;;;;;;;;;;;;;11.79;100.00;99063.59;10139304;23;19967;-82
2022/10/22 05:04:14;;;;;;;;;;;;;;;11.72;100.00;99061.97;10140530;23;19925;-82
2022/10/22 05:08:16;;;;;;;;;;;;;;;11.72;100.00;99064.56;10139366;23;19925;-82
2022/10/22 05:12:18;;;;;;;;;;;;;;;11.68;100.00;99058.53;10193234;23;19924;-83
2022/10/22 05:16:19;;;;;;;;;;;;;;;11.65;100.00;99061.16;10143264;23;19925;-82
2022/10/22 05:20:21;;;;;;;;;;;;;;;11.66;100.00;99062.88;10167213;23;19944;-82
2022/10/22 05:24:23;;;;;;;;;;;;;;;11.63;100.00;99070.72;10164616;23;19935;-82
2022/10/22 05:28:26;;;;;;;;;;;;;;;11.60;100.00;99075.13;10166272;23;19924;-82
2022/10/22 05:32:28;;;;;;;;;;;;;;;11.54;100.00;99078.66;10144516;23;20327;-85
2022/10/22 05:36:30;;;;;;;;;;;;;;;11.49;100.00;99085.69;10195313;23;19925;-83
2022/10/22 05:40:31;;;;;;;;;;;;;;;11.36;100.00;99084.97;10193715;23;20035;-83
2022/10/22 05:44:33;;;;;;;;;;;;;;;11.29;100.00;99090.25;10169234;23;19948;-82
2022/10/22 05:48:35;;;;;;;;;;;;;;;11.17;100.00;99101.66;10166370;23;19928;-82
2022/10/22 05:52:36;;;;;;;;;;;;;;;11.07;100.00;99105.22;10143346;23;19925;-82
2022/10/22 05:56:38;;;;;;;;;;;;;;;11.05;100.00;99100.06;10167468;23;19984;-83
2022/10/22 06:00:39;;;;;;;;;;;;;;;11.01;100.00;99105.31;10170699;23;19920;-82
2022/10/22 06:04:41;;;;;;;;;;;;;;;10.94;100.00;99109.69;10166440;23;19924;-83
2022/10/22 06:08:43;;;;;;;;;;;;;;;10.86;100.00;99101.13;10154824;23;19920;-83
2022/10/22 06:12:45;;;;;;;;;;;;;;;10.83;100.00;99107.22;10177991;23;19936;-82
2022/10/22 06:16:48;;;;;;;;;;;;;;;10.79;100.00;99107.28;10199539;23;20008;-84
2022/10/22 06:20:49;;;;;;;;;;;;;;;10.74;100.00;99114.22;10144609;23;19931;-82
2022/10/22 06:24:51;;;;;;;;;;;;;;;10.70;100.00;99117.72;10169886;23;20713;-82
2022/10/22 06:28:54;;;;;;;;;;;;;;;10.67;100.00;99125.56;10144146;23;19944;-82
2022/10/22 06:32:56;;;;;;;;;;;;;;;10.66;100.00;99144.59;10144629;23;19935;-82
2022/10/22 06:36:57;;;;;;;;;;;;;;;10.63;100.00;99158.47;10170035;23;19928;-82
2022/10/22 06:41:06;;;;;;;;;;;;;;;10.66;100.00;99163.66;10179513;23;19925;-89
2022/10/22 06:45:08;;;;;;;;;;;;;;;10.68;100.00;99174.00;10172410;23;19920;-83
2022/10/22 06:49:11;;;;;;;;;;;;;;;10.73;100.00;99191.28;10189836;23;19925;-82
2022/10/22 06:53:13;;;;;;;;;;;;;;;10.74;100.00;99192.13;10189668;23;19924;-83
2022/10/22 06:57:14;;;;;;;;;;;;;;;10.75;100.00;99202.50;10174319;23;19955;-82
2022/10/22 07:01:17;;;;;;;;;;;;;;;10.82;100.00;99201.59;10159301;23;20365;-83
2022/10/22 07:05:19;;;;;;;;;;;;;;;10.92;100.00;99210.16;10167742;23;19929;-82
2022/10/22 07:09:20;;;;;;;;;;;;;;;11.06;100.00;99220.44;10194705;23;19921;-85
2022/10/22 07:13:21;;;;;;;;;;;;;;;11.23;100.00;99218.53;10167144;23;19924;-82
2022/10/22 07:17:23;;;;;;;;;;;;;;;11.42;100.00;99232.19;10167363;23;19948;-80
2022/10/22 07:21:25;;;;;;;;;;;;;;;11.60;100.00;99236.34;10185082;23;19966;-80
2022/10/22 07:25:26;;;;;;;;;;;;;;;11.77;100.00;99247.41;10161989;23;19924;-80
2022/10/22 07:29:27;;;;;;;;;;;;;;;11.98;100.00;99239.38;10161965;23;19925;-81
2022/10/22 07:33:30;;;;;;;;;;;;;;;12.27;100.00;99246.81;10133310;23;19924;-81
2022/10/22 07:37:33;;;;;;;;;;;;;;;12.57;100.00;99253.34;10179411;23;19951;-82
2022/10/22 07:41:38;;;;;;;;;;;;;;;12.79;100.00;99266.91;10175931;23;19912;-80
2022/10/22 07:46:01;;;;;;;;;;;;;;;13.02;100.00;99256.97;10211525;23;19917;-81
2022/10/22 07:50:06;;;;;;;;;;;;;;;13.16;100.00;99264.56;10207235;23;19921;-80
2022/10/22 07:54:07;;;;;;;;;;;;;;;13.28;100.00;99259.19;10181243;23;19960;-80
2022/10/22 07:58:09;;;;;;;;;;;;;;;13.34;100.00;99265.19;10150085;23;19964;-80
2022/10/22 08:02:10;;;;;;;;;;;;;;;13.39;100.00;99265.94;10181435;23;19952;-80
2022/10/22 08:06:13;;;;;;;;;;;;;;;13.41;100.00;99278.06;10175853;23;20011;-80
2022/10/22 08:10:14;;;;;;;;;;;;;;;13.46;100.00;99286.66;10146528;23;19964;-80
2022/10/22 08:14:15;;;;;;;;;;;;;;;13.51;100.00;99289.22;10167981;23;19924;-80
2022/10/22 08:18:16;;;;;;;;;;;;;;;13.54;100.00;99289.16;10185104;23;19924;-80
2022/10/22 08:22:18;;;;;;;;;;;;;;;13.58;100.00;99301.25;10210035;23;19905;-80
2022/10/22 08:26:21;;;;;;;;;;;;;;;13.65;100.00;99299.41;10225637;23;19911;-80
2022/10/22 08:30:22;;;;;;;;;;;;;;;13.70;100.00;99306.25;10232154;23;19932;-80
2022/10/22 08:34:23;;;;;;;;;;;;;;;13.76;100.00;99303.53;10153345;23;19921;-80
2022/10/22 08:38:25;;;;;;;;;;;;;;;13.82;100.00;99305.16;10157806;23;20277;-80
2022/10/22 08:42:51;;;;;;;;;;;;;;;13.85;100.00;99300.75;10139538;23;19967;-80
2022/10/22 08:47:15;;;;;;;;;;;;;;;13.90;100.00;99304.13;10156386;23;20263;-80
2022/10/22 08:51:26;;;;;;;;;;;;;;;13.97;100.00;99315.28;10162973;23;19936;-80
2022/10/22 08:55:27;;;;;;;;;;;;;;;14.05;100.00;99318.63;10161934;23;19972;-80
2022/10/22 08:59:31;;;;;;;;;;;;;;;14.18;100.00;99322.72;10133849;23;19921;-80
2022/10/22 09:03:33;;;;;;;;;;;;;;;14.33;100.00;99323.28;10146059;23;20347;-80
2022/10/22 09:07:34;;;;;;;;;;;;;;;14.50;100.00;99324.69;10133038;23;20292;-80
2022/10/22 09:11:42;;;;;;;;;;;;;;;14.69;100.00;99324.28;10155253;23;20334;-80
2022/10/22 09:15:53;;;;;;;;;;;;;;;14.82;100.00;99331.81;10152652;23;19920;-80
2022/10/22 09:20:01;;;;;;;;;;;;;;;15.01;100.00;99332.25;10163395;23;20426;-80
2022/10/22 09:24:03;;;;;;;;;;;;;;;15.15;98.55;99331.94;10158610;23;19920;-79
2022/10/22 09:28:04;;;;;;;;;;;;;;;15.31;98.22;99337.66;10129408;23;20008;-80
2022/10/22 09:32:06;;;;;;;;;;;;;;;15.39;98.17;99333.94;10147407;23;19994;-79
2022/10/22 09:36:12;;;;;;;;;;;;;;;15.55;97.51;99344.03;10128569;23;19924;-79
2022/10/22 09:40:13;;;;;;;;;;;;;;;15.71;96.53;99337.56;10151858;23;20292;-79
2022/10/22 09:44:17;;;;;;;;;;;;;;;15.82;96.63;99345.13;10179016;23;19978;-79
2022/10/22 09:48:27;;;;;;;;;;;;;;;16.01;96.71;99344.59;10145132;23;19931;-79
2022/10/22 09:52:29;;;;;;;;;;;;;;;16.26;94.57;99357.00;10128012;23;20677;-79
2022/10/22 09:56:38;;;;;;;;;;;;;;;16.37;93.21;99360.19;10151023;23;19928;-79
2022/10/22 10:00:40;;;;;;;;;;;;;;;16.38;93.21;99361.06;10172535;23;19998;-80
2022/10/22 10:04:46;;;;;;;;;;;;;;;16.39;93.68;99361.00;10136137;23;19921;-80
2022/10/22 10:08:48;;;;;;;;;;;;;;;16.44;91.96;99366.09;10157404;23;20204;-80
2022/10/22 10:12:55;;;;;;;;;;;;;;;16.54;90.84;99360.56;10131130;23;19928;-79
2022/10/22 10:16:59;;;;;;;;;;;;;;;16.67;90.83;99358.47;10175969;23;19925;-80
2022/10/22 10:21:06;;;;;;;;;;;;;;;16.82;90.65;99357.16;10156931;23;19974;-80
2022/10/22 10:25:31;;;;;;;;;;;;;;;16.93;88.57;99357.69;10156529;23;19995;-79
2022/10/22 10:29:41;;;;;;;;;;;;;;;17.26;87.11;99352.28;10181381;23;19928;-80
2022/10/22 10:34:06;;;;;;;;;;;;;;;17.52;85.54;99352.28;10155614;23;19963;-78
2022/10/22 10:38:13;;;;;;;;;;;;;;;17.72;85.52;99351.66;10101080;23;19920;-79
2022/10/22 10:42:25;;;;;;;;;;;;;;;17.79;82.78;99345.28;10153983;23;20992;-77
2022/10/22 10:46:26;;;;;;;;;;;;;;;17.81;83.49;99357.47;10145831;23;20023;-78
2022/10/22 10:50:31;;;;;;;;;;;;;;;17.88;84.02;99359.88;10153508;23;19924;-78
2022/10/22 10:54:33;;;;;;;;;;;;;;;17.98;83.72;99358.66;10154433;23;20012;-78
2022/10/22 10:58:43;;;;;;;;;;;;;;;18.19;81.63;99354.41;10154364;23;19925;-78
2022/10/22 11:03:03;;;;;;;;;;;;;;;18.35;79.31;99360.81;10146894;23;19924;-79
2022/10/22 11:07:08;;;;;;;;;;;;;;;18.45;80.41;99350.81;10180670;23;20205;-79
2022/10/22 11:11:20;;;;;;;;;;;;;;;18.47;80.91;99355.09;10156592;23;19959;-79
2022/10/22 11:15:24;;;;;;;;;;;;;;;18.45;80.38;99346.41;10150229;23;20702;-79
2022/10/22 11:19:45;;;;;;;;;;;;;;;18.67;79.60;99344.72;10182696;23;19975;-79
2022/10/22 11:23:59;;;;;;;;;;;;;;;18.82;79.35;99335.38;10180655;23;19925;-79
2022/10/22 11:28:01;;;;;;;;;;;;;;;18.79;78.46;99329.38;10156151;23;19979;-79
2022/10/22 11:32:17;;;;;;;;;;;;;;;18.73;78.69;99319.97;10176104;23;19952;-79
2022/10/22 11:36:21;;;;;;;;;;;;;;;18.71;79.86;99321.78;10153890;23;19955;-79
2022/10/22 11:40:43;;;;;;;;;;;;;;;18.69;79.14;99321.00;10180423;23;19924;-79
2022/10/22 11:44:46;;;;;;;;;;;;;;;18.73;78.70;99314.69;10130362;23;20255;-79
2022/10/22 11:49:06;;;;;;;;;;;;;;;18.76;77.13;99308.47;10145806;23;19956;-79
2022/10/22 11:53:11;;;;;;;;;;;;;;;18.85;76.23;99314.22;10178530;23;19996;-78
2022/10/22 11:57:15;;;;;;;;;;;;;;;19.06;77.48;99304.63;10178149;23;20007;-78
2022/10/22 12:01:20;;;;;;;;;;;;;;;19.33;76.65;99300.00;10147561;23;19928;-79
2022/10/22 12:05:21;;;;;;;;;;;;;;;19.63;75.00;99302.28;10153599;23;19935;-79
2022/10/22 12:09:25;;;;;;;;;;;;;;;19.81;73.46;99307.63;10155046;23;19924;-78
2022/10/22 12:13:29;;;;;;;;;;;;;;;20.10;71.89;99308.97;10180598;23;20548;-79
2022/10/22 12:17:31;;;;;;;;;;;;;;;20.24;71.05;99311.00;10147654;23;19990;-79
2022/10/22 12:21:32;;;;;;;;;;;;;;;20.21;69.94;99304.06;10153332;23;20811;-79
2022/10/22 12:25:35;;;;;;;;;;;;;;;20.23;71.50;99301.38;10153858;23;19990;-79
2022/10/22 12:29:36;;;;;;;;;;;;;;;20.26;72.11;99301.22;10130420;23;20012;-79
2022/10/22 12:33:38;;;;;;;;;;;;;;;20.41;71.57;99297.94;10173329;23;19920;-79
2022/10/22 12:37:39;;;;;;;;;;;;;;;20.52;70.30;99298.28;10128755;23;20007;-79
2022/10/22 12:41:41;;;;;;;;;;;;;;;20.48;67.76;99287.97;10178499;23;20272;-79
2022/10/22 12:45:44;;;;;;;;;;;;;;;20.35;65.28;99290.28;10122923;23;19929;-78
2022/10/22 12:49:47;;;;;;;;;;;;;;;20.32;66.17;99287.78;10179548;23;19925;-78
2022/10/22 12:53:50;;;;;;;;;;;;;;;20.18;65.36;99284.91;10178976;23;19921;-78
2022/10/22 12:57:52;;;;;;;;;;;;;;;20.00;68.19;99283.09;10153453;23;19932;-79
2022/10/22 13:01:54;;;;;;;;;;;;;;;19.94;69.17;99293.94;10120784;23;19928;-79
2022/10/22 13:05:56;;;;;;;;;;;;;;;20.05;69.17;99292.50;10151915;23;20004;-78
2022/10/22 13:09:58;;;;;;;;;;;;;;;20.02;64.29;99287.38;10179256;23;20603;-79
2022/10/22 13:14:00;;;;;;;;;;;;;;;19.95;65.63;99299.13;10178582;23;20312;-79
2022/10/22 13:18:03;;;;;;;;;;;;;;;19.91;66.11;99289.63;10144887;23;19995;-79
2022/10/22 13:22:22;;;;;;;;;;;;;;;19.88;66.53;99290.63;10152047;23;19931;-78
2022/10/22 13:26:30;;;;;;;;;;;;;;;19.85;66.42;99289.91;10153740;23;19975;-78
2022/10/22 13:30:31;;;;;;;;;;;;;;;19.86;67.04;99295.09;10171928;23;20376;-78
2022/10/22 13:34:33;;;;;;;;;;;;;;;19.87;66.77;99280.13;10151802;23;19924;-78
2022/10/22 13:38:34;;;;;;;;;;;;;;;19.85;66.32;99276.72;10151345;23;19924;-79
2022/10/22 13:42:38;;;;;;;;;;;;;;;19.70;66.79;99274.75;10177707;23;19990;-78
2022/10/22 13:46:41;;;;;;;;;;;;;;;19.64;69.17;99273.25;10145433;23;19965;-79
2022/10/22 13:50:43;;;;;;;;;;;;;;;19.60;68.69;99269.91;10126625;23;19956;-78
2022/10/22 13:54:45;;;;;;;;;;;;;;;19.45;68.84;99278.41;10156810;23;20284;-79
2022/10/22 13:58:49;;;;;;;;;;;;;;;19.34;69.29;99272.72;10180659;23;19920;-79
2022/10/22 14:02:52;;;;;;;;;;;;;;;19.45;71.51;99272.28;10147940;23;19928;-78
2022/10/22 14:06:54;;;;;;;;;;;;;;;19.63;71.91;99274.16;10180686;23;19986;-79
2022/10/22 14:11:00;;;;;;;;;;;;;;;19.74;71.69;99271.91;10155483;23;19935;-78
2022/10/22 14:15:01;;;;;;;;;;;;;;;19.72;71.38;99263.22;10180836;23;20003;-79
2022/10/22 14:19:03;;;;;;;;;;;;;;;19.70;71.98;99270.34;10178785;23;20011;-79
2022/10/22 14:23:17;;;;;;;;;;;;;;;19.64;71.15;99261.84;10181472;23;19924;-79
2022/10/22 14:27:19;;;;;;;;;;;;;;;19.60;71.09;99261.13;10155371;23;20008;-79
2022/10/22 14:31:20;;;;;;;;;;;;;;;19.56;70.33;99257.75;10174971;23;19935;-79
2022/10/22 14:35:22;;;;;;;;;;;;;;;19.51;70.30;99253.59;10154370;23;19924;-79
2022/10/22 14:39:23;;;;;;;;;;;;;;;19.42;71.55;99249.59;10154624;23;19959;-79
2022/10/22 14:43:26;;;;;;;;;;;;;;;19.38;72.72;99250.63;10154894;23;19925;-79
2022/10/22 14:47:28;;;;;;;;;;;;;;;19.35;72.31;99249.88;10148728;23;19924;-78
2022/10/22 14:51:29;;;;;;;;;;;;;;;19.25;72.59;99250.28;10179623;23;20279;-78
2022/10/22 14:55:30;;;;;;;;;;;;;;;19.19;73.08;99254.94;10154796;23;20011;-78
2022/10/22 14:59:32;;;;;;;;;;;;;;;19.09;72.66;99254.47;10179768;23;19960;-79
2022/10/22 15:03:33;;;;;;;;;;;;;;;19.04;72.31;99242.44;10124655;23;20989;-79
2022/10/22 15:07:35;;;;;;;;;;;;;;;18.99;72.06;99255.75;10179859;23;20007;-79
2022/10/22 15:11:37;;;;;;;;;;;;;;;18.89;74.16;99249.19;10129583;23;20516;-77
2022/10/22 15:15:39;;;;;;;;;;;;;;;18.78;73.65;99254.88;10147470;23;19978;-79
2022/10/22 15:19:42;;;;;;;;;;;;;;;18.62;75.60;99259.84;10154735;23;19938;-78
2022/10/22 15:23:43;;;;;;;;;;;;;;;18.52;77.10;99250.59;10153131;23;20281;-77
2022/10/22 15:27:45;;;;;;;;;;;;;;;18.37;77.85;99245.94;10152581;23;20023;-77
2022/10/22 15:31:53;;;;;;;;;;;;;;;18.21;79.23;99248.28;10122049;23;20378;-77
2022/10/22 15:35:55;;;;;;;;;;;;;;;18.01;81.58;99250.81;10126773;23;19925;-77
2022/10/22 15:39:57;;;;;;;;;;;;;;;17.87;82.26;99255.69;10177209;23;20306;-77
2022/10/22 15:43:58;;;;;;;;;;;;;;;17.77;81.63;99245.53;10149000;23;20563;-76
2022/10/22 15:47:59;;;;;;;;;;;;;;;17.65;82.36;99248.56;10167450;23;19924;-77
2022/10/22 15:52:01;;;;;;;;;;;;;;;17.47;83.83;99247.44;10150107;23;20367;-77
2022/10/22 15:56:02;;;;;;;;;;;;;;;17.27;85.68;99247.28;10175327;23;19994;-77
2022/10/22 16:00:05;;;;;;;;;;;;;;;17.12;86.47;99242.53;10171483;23;19924;-78
2022/10/22 16:04:06;;;;;;;;;;;;;;;16.99;87.11;99252.56;10178100;23;19924;-78
2022/10/22 16:08:08;;;;;;;;;;;;;;;16.82;88.14;99252.25;10178068;23;19921;-78
2022/10/22 16:12:09;;;;;;;;;;;;;;;16.67;88.62;99244.88;10153155;23;19925;-78
2022/10/22 16:16:14;;;;;;;;;;;;;;;16.46;88.90;99246.34;10170103;23;19921;-78
2022/10/22 16:20:15;;;;;;;;;;;;;;;16.27;89.84;99256.53;10179738;23;19920;-78
2022/10/22 16:24:17;;;;;;;;;;;;;;;16.12;91.08;99257.84;10129512;23;19983;-78
2022/10/22 16:28:19;;;;;;;;;;;;;;;15.99;91.55;99252.13;10153377;23;19991;-79
2022/10/22 16:32:21;;;;;;;;;;;;;;;15.83;91.93;99249.97;10172154;23;19940;-80
2022/10/22 16:36:23;;;;;;;;;;;;;;;15.66;92.47;99256.53;10156753;23;19979;-80
2022/10/22 16:40:24;;;;;;;;;;;;;;;15.58;93.19;99260.19;10157521;23;20446;-80
2022/10/22 16:44:26;;;;;;;;;;;;;;;15.48;93.57;99257.00;10153564;23;19924;-79
2022/10/22 16:48:27;;;;;;;;;;;;;;;15.34;94.07;99259.97;10146547;23;20342;-79
2022/10/22 16:52:28;;;;;;;;;;;;;;;15.23;94.50;99266.34;10154417;23;19950;-79
2022/10/22 16:56:30;;;;;;;;;;;;;;;15.05;94.72;99273.75;10129845;23;19929;-79
2022/10/22 17:00:32;;;;;;;;;;;;;;;14.93;95.18;99281.06;10148289;23;19999;-79
2022/10/22 17:04:34;;;;;;;;;;;;;;;14.83;95.43;99283.00;10131773;23;19968;-79
2022/10/22 17:08:36;;;;;;;;;;;;;;;14.76;96.24;99281.44;10154620;23;19986;-79
2022/10/22 17:12:37;;;;;;;;;;;;;;;14.71;96.48;99286.75;10180174;23;20608;-79
2022/10/22 17:16:39;;;;;;;;;;;;;;;14.62;96.05;99281.75;10147964;23;19924;-79
2022/10/22 17:20:44;;;;;;;;;;;;;;;14.56;96.71;99291.50;10180048;23;19928;-79
2022/10/22 17:24:45;;;;;;;;;;;;;;;14.46;96.83;99290.81;10133066;23;20027;-80
2022/10/22 17:28:47;;;;;;;;;;;;;;;14.36;96.74;99291.88;10184396;23;19924;-80
2022/10/22 17:32:49;;;;;;;;;;;;;;;14.22;97.16;99300.03;10151959;23;19995;-79
2022/10/22 17:36:50;;;;;;;;;;;;;;;14.18;98.18;99296.63;10156732;23;19925;-79
2022/10/22 17:40:52;;;;;;;;;;;;;;;14.12;98.33;99294.09;10132734;23;20231;-78
2022/10/22 17:44:53;;;;;;;;;;;;;;;14.07;98.49;99288.13;10133533;23;19931;-79
2022/10/22 17:48:56;;;;;;;;;;;;;;;13.99;98.43;99289.16;10149129;23;19924;-79
2022/10/22 17:52:57;;;;;;;;;;;;;;;13.90;98.46;99293.69;10182954;23;19932;-79
2022/10/22 17:56:58;;;;;;;;;;;;;;;13.82;98.69;99297.31;10156206;23;19963;-77
2022/10/22 18:01:01;;;;;;;;;;;;;;;13.76;99.13;99295.69;10147851;23;20371;-77
2022/10/22 18:05:02;;;;;;;;;;;;;;;13.71;99.46;99300.16;10155102;23;19925;-77
2022/10/22 18:09:08;;;;;;;;;;;;;;;13.65;99.11;99291.59;10156113;23;19924;-79
2022/10/22 18:13:11;;;;;;;;;;;;;;;13.59;99.30;99289.91;10157623;23;20039;-78
2022/10/22 18:17:12;;;;;;;;;;;;;;;13.56;100.00;99289.97;10150259;23;19999;-78
2022/10/22 18:21:15;;;;;;;;;;;;;;;13.55;100.00;99296.09;10154289;23;20311;-77
2022/10/22 18:25:17;;;;;;;;;;;;;;;13.51;100.00;99302.25;10153813;23;19925;-78
2022/10/22 18:29:19;;;;;;;;;;;;;;;13.47;100.00;99305.81;10156572;23;19959;-78
2022/10/22 18:33:22;;;;;;;;;;;;;;;13.41;100.00;99304.16;10174776;23;19924;-78
2022/10/22 18:37:24;;;;;;;;;;;;;;;13.37;100.00;99302.50;10154861;23;19925;-78
2022/10/22 18:41:26;;;;;;;;;;;;;;;13.33;100.00;99298.22;10129959;23;19924;-78
2022/10/22 18:45:28;;;;;;;;;;;;;;;13.28;100.00;99305.22;10164834;23;19948;-78
2022/10/22 18:49:29;;;;;;;;;;;;;;;13.25;100.00;99298.31;10155697;23;19924;-79
2022/10/22 18:53:31;;;;;;;;;;;;;;;13.21;100.00;99304.50;10156034;23;20364;-77
2022/10/22 18:57:32;;;;;;;;;;;;;;;13.18;100.00;99298.47;10127384;23;19928;-76
2022/10/22 19:01:34;;;;;;;;;;;;;;;13.13;100.00;99298.53;10170741;23;19924;-77
2022/10/22 19:05:44;;;;;;;;;;;;;;;13.11;100.00;99289.00;10152074;23;19928;-77
2022/10/22 19:09:46;;;;;;;;;;;;;;;13.07;100.00;99290.78;10150768;23;19924;-76
2022/10/22 19:13:47;;;;;;;;;;;;;;;13.02;100.00;99292.59;10150538;23;19925;-77
2022/10/22 19:17:49;;;;;;;;;;;;;;;12.98;100.00;99289.19;10143920;23;20011;-77
2022/10/22 19:21:50;;;;;;;;;;;;;;;12.95;100.00;99297.06;10176365;23;19924;-76
2022/10/22 19:26:20;;;;;;;;;;;;;;;12.91;100.00;99292.75;10176247;23;19982;-77
2022/10/22 19:30:22;;;;;;;;;;;;;;;12.87;100.00;99287.63;10142583;23;20630;-76
2022/10/22 19:34:24;;;;;;;;;;;;;;;12.79;100.00;99284.28;10126990;23;20621;-76
2022/10/22 19:38:28;;;;;;;;;;;;;;;12.75;100.00;99282.59;10124284;23;20292;-76
2022/10/22 19:42:29;;;;;;;;;;;;;;;12.67;100.00;99280.97;10150559;23;20501;-76
2022/10/22 19:46:31;;;;;;;;;;;;;;;12.63;100.00;99281.91;10118772;23;19974;-77
2022/10/22 19:50:34;;;;;;;;;;;;;;;12.59;100.00;99281.97;10155359;23;20003;-78
2022/10/22 19:54:39;;;;;;;;;;;;;;;12.54;100.00;99274.22;10133687;23;19921;-79
2022/10/22 19:58:41;;;;;;;;;;;;;;;12.50;100.00;99282.97;10156273;23;19966;-79
2022/10/22 20:02:42;;;;;;;;;;;;;;;12.46;100.00;99283.88;10149983;23;20542;-79
2022/10/22 20:06:43;;;;;;;;;;;;;;;12.42;100.00;99291.78;10156869;23;20008;-80
2022/10/22 20:10:49;;;;;;;;;;;;;;;12.39;100.00;99288.34;10156011;23;19925;-80
2022/10/22 20:14:51;;;;;;;;;;;;;;;12.32;100.00;99283.22;10156569;23;19925;-80
2022/10/22 20:18:52;;;;;;;;;;;;;;;12.28;100.00;99294.53;10125011;23;19928;-80
2022/10/22 20:22:54;;;;;;;;;;;;;;;12.24;100.00;99300.69;10156504;23;19924;-80
2022/10/22 20:26:55;;;;;;;;;;;;;;;12.19;100.00;99297.25;10132163;23;20297;-80
2022/10/22 20:30:56;;;;;;;;;;;;;;;12.14;100.00;99305.13;10175403;23;19921;-79
2022/10/22 20:34:58;;;;;;;;;;;;;;;12.13;100.00;99306.00;10157329;23;20435;-80
2022/10/22 20:39:00;;;;;;;;;;;;;;;12.10;100.00;99303.44;10132509;23;20652;-79
2022/10/22 20:43:02;;;;;;;;;;;;;;;12.03;100.00;99310.47;10157861;23;19924;-79
2022/10/22 20:47:03;;;;;;;;;;;;;;;11.97;100.00;99304.47;10153557;23;19991;-80
2022/10/22 20:51:05;;;;;;;;;;;;;;;11.97;100.00;99294.91;10158489;23;19995;-80
2022/10/22 20:55:07;;;;;;;;;;;;;;;11.87;100.00;99298.53;10166911;23;19976;-81